sensor_id;sensor_type;location;lat;lon;timestamp;pressure;altitude;pressure_sealevel;temperature;humidity
17855;BME280;9053;53.358;6.382;2024-03-23T00:53:07;100869.53;;;8.01;100.00
17855;BME280;9053;53.358;6.382;2024-03-23T00:55:36;100874.69;;;8.00;100.00
17855;BME280;9053;53.358;6.382;2024-03-23T00:58:02;100861.47;;;7.97;100.00
17855;BME280;9053;53.358;6.382;2024-03-23T01:00:28;100868.44;;;7.96;100.00
17855;BME280;9053;53.358;6.382;2024-03-23T01:02:54;100858.72;;;7.94;100.00
17855;BME280;9053;53.358;6.382;2024-03-23T01:05:21;100854.22;;;7.91;100.00
17855;BME280;9053;53.358;6.382;2024-03-23T01:07:47;100844.66;;;7.92;100.00
17855;BME280;9053;53.358;6.382;2024-03-23T01:10:13;100833.28;;;7.91;100.00
17855;BME280;9053;53.358;6.382;2024-03-23T01:12:41;100841.19;;;7.93;100.00
17855;BME280;9053;53.358;6.382;2024-03-23T01:15:08;100832.34;;;7.91;100.00
17855;BME280;9053;53.358;6.382;2024-03-23T01:17:34;100823.69;;;7.92;100.00
17855;BME280;9053;53.358;6.382;2024-03-23T01:20:00;100814.94;;;7.91;100.00
17855;BME280;9053;53.358;6.382;2024-03-23T01:22:27;100815.75;;;7.90;100.00
17855;BME280;9053;53.358;6.382;2024-03-23T01:24:53;100814.88;;;7.90;100.00
17855;BME280;9053;53.358;6.382;2024-03-23T01:27:19;100813.00;;;7.87;100.00
17855;BME280;9053;53.358;6.382;2024-03-23T01:29:47;100819.97;;;7.87;100.00
17855;BME280;9053;53.358;6.382;2024-03-23T01:32:13;100812.03;;;7.85;100.00
17855;BME280;9053;53.358;6.382;2024-03-23T01:34:40;100816.25;;;7.82;100.00
17855;BME280;9053;53.358;6.382;2024-03-23T01:37:06;100807.50;;;7.81;100.00
17855;BME280;9053;53.358;6.382;2024-03-23T01:39:32;100813.56;;;7.80;100.00
17855;BME280;9053;53.358;6.382;2024-03-23T01:41:58;100808.25;;;7.78;100.00
17855;BME280;9053;53.358;6.382;2024-03-23T01:44:26;100797.78;;;7.78;100.00
17855;BME280;9053;53.358;6.382;2024-03-23T01:46:55;100801.22;;;7.77;100.00
17855;BME280;9053;53.358;6.382;2024-03-23T01:49:21;100789.66;;;7.72;100.00
17855;BME280;9053;53.358;6.382;2024-03-23T01:51:47;100797.38;;;7.69;100.00
17855;BME280;9053;53.358;6.382;2024-03-23T01:54:13;100787.59;;;7.65;100.00
17855;BME280;9053;53.358;6.382;2024-03-23T01:56:40;100790.16;;;7.64;100.00
17855;BME280;9053;53.358;6.382;2024-03-23T01:59:06;100788.31;;;7.61;100.00
17855;BME280;9053;53.358;6.382;2024-03-23T02:01:32;100781.22;;;7.58;100.00
17855;BME280;9053;53.358;6.382;2024-03-23T02:04:01;100781.13;;;7.57;100.00
17855;BME280;9053;53.358;6.382;2024-03-23T02:06:27;100775.69;;;7.52;100.00
17855;BME280;9053;53.358;6.382;2024-03-23T02:08:54;100773.06;;;7.52;100.00
17855;BME280;9053;53.358;6.382;2024-03-23T02:11:20;100775.69;;;7.52;100.00
17855;BME280;9053;53.358;6.382;2024-03-23T02:13:46;100774.88;;;7.53;100.00
17855;BME280;9053;53.358;6.382;2024-03-23T02:16:12;100760.88;;;7.53;100.00
17855;BME280;9053;53.358;6.382;2024-03-23T02:18:39;100767.03;;;7.53;100.00
17855;BME280;9053;53.358;6.382;2024-03-23T02:21:08;100760.06;;;7.54;100.00
17855;BME280;9053;53.358;6.382;2024-03-23T02:23:36;100753.94;;;7.53;100.00
17855;BME280;9053;53.358;6.382;2024-03-23T02:26:03;100748.50;;;7.49;100.00
17855;BME280;9053;53.358;6.382;2024-03-23T02:28:30;100744.91;;;7.47;100.00
17855;BME280;9053;53.358;6.382;2024-03-23T02:30:57;100752.56;;;7.42;100.00
17855;BME280;9053;53.358;6.382;2024-03-23T02:33:23;100750.59;;;7.38;100.00
17855;BME280;9053;53.358;6.382;2024-03-23T02:35:49;100743.38;;;7.32;100.00
17855;BME280;9053;53.358;6.382;2024-03-23T02:38:15;100739.66;;;7.27;100.00
17855;BME280;9053;53.358;6.382;2024-03-23T02:40:44;100739.47;;;7.23;100.00
17855;BME280;9053;53.358;6.382;2024-03-23T02:43:10;100738.44;;;7.19;100.00
17855;BME280;9053;53.358;6.382;2024-03-23T02:45:36;100735.69;;;7.16;100.00
17855;BME280;9053;53.358;6.382;2024-03-23T02:48:02;100732.03;;;7.12;100.00
17855;BME280;9053;53.358;6.382;2024-03-23T02:50:29;100726.75;;;7.11;100.00
17855;BME280;9053;53.358;6.382;2024-03-23T02:52:55;100716.88;;;7.05;100.00
17855;BME280;9053;53.358;6.382;2024-03-23T02:55:21;100712.47;;;7.04;100.00
17855;BME280;9053;53.358;6.382;2024-03-23T02:57:49;100713.22;;;7.02;100.00
17855;BME280;9053;53.358;6.382;2024-03-23T03:00:16;100714.06;;;7.01;100.00
17855;BME280;9053;53.358;6.382;2024-03-23T03:02:42;100712.25;;;7.00;100.00
17855;BME280;9053;53.358;6.382;2024-03-23T03:05:09;100709.66;;;7.00;100.00
17855;BME280;9053;53.358;6.382;2024-03-23T03:07:35;100709.66;;;7.00;100.00
17855;BME280;9053;53.358;6.382;2024-03-23T03:10:01;100706.06;;;6.98;100.00
17855;BME280;9053;53.358;6.382;2024-03-23T03:12:27;100708.53;;;6.94;100.00
17855;BME280;9053;53.358;6.382;2024-03-23T03:14:56;100704.16;;;6.93;100.00
17855;BME280;9053;53.358;6.382;2024-03-23T03:17:22;100698.69;;;6.89;100.00
17855;BME280;9053;53.358;6.382;2024-03-23T03:19:48;100699.53;;;6.88;100.00
17855;BME280;9053;53.358;6.382;2024-03-23T03:22:14;100701.19;;;6.86;100.00
17855;BME280;9053;53.358;6.382;2024-03-23T03:24:40;100695.03;;;6.85;100.00
17855;BME280;9053;53.358;6.382;2024-03-23T03:27:07;100701.97;;;6.85;100.00
17855;BME280;9053;53.358;6.382;2024-03-23T03:29:33;100692.38;;;6.84;100.00
17855;BME280;9053;53.358;6.382;2024-03-23T03:32:02;100694.00;;;6.82;100.00
17855;BME280;9053;53.358;6.382;2024-03-23T03:34:28;100687.88;;;6.81;100.00
17855;BME280;9053;53.358;6.382;2024-03-23T03:36:54;100683.53;;;6.82;100.00
17855;BME280;9053;53.358;6.382;2024-03-23T03:39:21;100681.03;;;6.83;100.00
17855;BME280;9053;53.358;6.382;2024-03-23T03:41:47;100675.72;;;6.82;100.00
17855;BME280;9053;53.358;6.382;2024-03-23T03:44:15;100680.06;;;6.81;100.00
17855;BME280;9053;53.358;6.382;2024-03-23T03:46:41;100675.63;;;6.80;100.00
17855;BME280;9053;53.358;6.382;2024-03-23T03:49:10;100674.72;;;6.80;100.00
17855;BME280;9053;53.358;6.382;2024-03-23T03:51:36;100665.88;;;6.76;100.00
17855;BME280;9053;53.358;6.382;2024-03-23T03:54:02;100661.44;;;6.75;100.00
17855;BME280;9053;53.358;6.382;2024-03-23T03:56:28;100660.44;;;6.71;100.00
17855;BME280;9053;53.358;6.382;2024-03-23T03:58:55;100659.53;;;6.71;100.00
17855;BME280;9053;53.358;6.382;2024-03-23T04:01:21;100658.66;;;6.70;100.00
17855;BME280;9053;53.358;6.382;2024-03-23T04:03:48;100659.41;;;6.68;100.00
17855;BME280;9053;53.358;6.382;2024-03-23T04:06:21;100659.41;;;6.68;100.00
17855;BME280;9053;53.358;6.382;2024-03-23T04:08:47;100660.16;;;6.65;100.00
17855;BME280;9053;53.358;6.382;2024-03-23T04:11:13;100656.63;;;6.65;100.00
17855;BME280;9053;53.358;6.382;2024-03-23T04:13:39;100653.06;;;6.63;100.00
17855;BME280;9053;53.358;6.382;2024-03-23T04:16:05;100653.88;;;6.62;100.00
17855;BME280;9053;53.358;6.382;2024-03-23T04:18:32;100649.41;;;6.59;100.00
17855;BME280;9053;53.358;6.382;2024-03-23T04:20:58;100648.44;;;6.57;100.00
17855;BME280;9053;53.358;6.382;2024-03-23T04:23:26;100644.94;;;6.57;100.00
17855;BME280;9053;53.358;6.382;2024-03-23T04:25:52;100648.50;;;6.59;100.00
17855;BME280;9053;53.358;6.382;2024-03-23T04:28:19;100646.75;;;6.58;100.00
17855;BME280;9053;53.358;6.382;2024-03-23T04:30:45;100642.41;;;6.58;100.00
17855;BME280;9053;53.358;6.382;2024-03-23T04:33:11;100639.78;;;6.58;100.00
17855;BME280;9053;53.358;6.382;2024-03-23T04:35:37;100641.50;;;6.58;100.00
17855;BME280;9053;53.358;6.382;2024-03-23T04:38:03;100640.59;;;6.57;100.00
17855;BME280;9053;53.358;6.382;2024-03-23T04:40:32;100640.69;;;6.59;100.00
17855;BME280;9053;53.358;6.382;2024-03-23T04:42:58;100638.94;;;6.59;100.00
17855;BME280;9053;53.358;6.382;2024-03-23T04:45:27;100635.38;;;6.57;100.00
17855;BME280;9053;53.358;6.382;2024-03-23T04:47:53;100637.09;;;6.57;100.00
17855;BME280;9053;53.358;6.382;2024-03-23T04:50:19;100640.53;;;6.56;100.00
17855;BME280;9053;53.358;6.382;2024-03-23T04:52:45;100631.81;;;6.55;100.00
17855;BME280;9053;53.358;6.382;2024-03-23T04:55:11;100630.00;;;6.54;100.00
17855;BME280;9053;53.358;6.382;2024-03-23T04:57:40;100629.91;;;6.53;100.00
17855;BME280;9053;53.358;6.382;2024-03-23T05:00:07;100629.03;;;6.52;100.00
17855;BME280;9053;53.358;6.382;2024-03-23T05:02:35;100617.69;;;6.52;100.00
17855;BME280;9053;53.358;6.382;2024-03-23T05:05:01;100617.69;;;6.52;100.00
17855;BME280;9053;53.358;6.382;2024-03-23T05:07:27;100621.13;;;6.50;100.00
17855;BME280;9053;53.358;6.382;2024-03-23T05:09:53;100617.56;;;6.48;100.00
17855;BME280;9053;53.358;6.382;2024-03-23T05:12:19;100617.47;;;6.47;100.00
17855;BME280;9053;53.358;6.382;2024-03-23T05:14:48;100613.84;;;6.43;100.00
17855;BME280;9053;53.358;6.382;2024-03-23T05:17:14;100618.19;;;6.43;100.00
17855;BME280;9053;53.358;6.382;2024-03-23T05:19:40;100613.84;;;6.43;100.00
17855;BME280;9053;53.358;6.382;2024-03-23T05:22:06;100617.34;;;6.44;100.00
17855;BME280;9053;53.358;6.382;2024-03-23T05:24:32;100612.03;;;6.42;100.00
17855;BME280;9053;53.358;6.382;2024-03-23T05:26:58;100612.94;;;6.43;100.00
17855;BME280;9053;53.358;6.382;2024-03-23T05:29:24;100606.75;;;6.41;100.00
17855;BME280;9053;53.358;6.382;2024-03-23T05:31:54;100605.88;;;6.40;100.00
17855;BME280;9053;53.358;6.382;2024-03-23T05:34:20;100615.41;;;6.40;100.00
17855;BME280;9053;53.358;6.382;2024-03-23T05:36:46;100609.28;;;6.39;100.00
17855;BME280;9053;53.358;6.382;2024-03-23T05:39:12;100617.13;;;6.39;100.00
17855;BME280;9053;53.358;6.382;2024-03-23T05:41:39;100614.50;;;6.39;100.00
17855;BME280;9053;53.358;6.382;2024-03-23T05:44:08;100612.72;;;6.38;100.00
17855;BME280;9053;53.358;6.382;2024-03-23T05:46:34;100620.63;;;6.40;100.00
17855;BME280;9053;53.358;6.382;2024-03-23T05:49:02;100618.00;;;6.40;100.00
17855;BME280;9053;53.358;6.382;2024-03-23T05:51:28;100618.97;;;6.42;100.00
17855;BME280;9053;53.358;6.382;2024-03-23T05:53:55;100617.47;;;6.47;100.00
17855;BME280;9053;53.358;6.382;2024-03-23T05:56:21;100614.09;;;6.49;100.00
17855;BME280;9053;53.358;6.382;2024-03-23T05:58:47;100616.13;;;6.55;100.00
17855;BME280;9053;53.358;6.382;2024-03-23T06:01:13;100611.94;;;6.59;100.00
17855;BME280;9053;53.358;6.382;2024-03-23T06:03:39;100604.31;;;6.63;100.00
17855;BME280;9053;53.358;6.382;2024-03-23T06:06:08;100603.69;;;6.69;100.00
17855;BME280;9053;53.358;6.382;2024-03-23T06:08:34;100602.19;;;6.74;100.00
17855;BME280;9053;53.358;6.382;2024-03-23T06:11:03;100604.28;;;6.83;100.00
17855;BME280;9053;53.358;6.382;2024-03-23T06:13:30;100606.38;;;6.90;100.00
17855;BME280;9053;53.358;6.382;2024-03-23T06:15:56;100610.16;;;6.97;100.00
17855;BME280;9053;53.358;6.382;2024-03-23T06:18:22;100602.44;;;7.00;100.00
17855;BME280;9053;53.358;6.382;2024-03-23T06:20:48;100607.78;;;7.03;100.00
17855;BME280;9053;53.358;6.382;2024-03-23T06:23:17;100603.53;;;7.05;100.00
17855;BME280;9053;53.358;6.382;2024-03-23T06:25:43;100604.50;;;7.07;100.00
17855;BME280;9053;53.358;6.382;2024-03-23T06:28:10;100604.59;;;7.08;100.00
17855;BME280;9053;53.358;6.382;2024-03-23T06:30:36;100607.34;;;7.11;100.00
17855;BME280;9053;53.358;6.382;2024-03-23T06:33:03;100608.41;;;7.17;100.00
17855;BME280;9053;53.358;6.382;2024-03-23T06:35:29;100600.78;;;7.21;100.00
17855;BME280;9053;53.358;6.382;2024-03-23T06:37:55;100599.25;;;7.26;100.00
17855;BME280;9053;53.358;6.382;2024-03-23T06:40:24;100596.91;;;7.32;100.00
17855;BME280;9053;53.358;6.382;2024-03-23T06:42:50;100593.63;;;7.38;100.00
17855;BME280;9053;53.358;6.382;2024-03-23T06:45:16;100589.56;;;7.45;100.00
17855;BME280;9053;53.358;6.382;2024-03-23T06:47:42;100599.56;;;7.53;100.00
17855;BME280;9053;53.358;6.382;2024-03-23T06:50:09;100598.91;;;7.59;100.00
17855;BME280;9053;53.358;6.382;2024-03-23T06:52:35;100590.28;;;7.62;100.00
17855;BME280;9053;53.358;6.382;2024-03-23T06:55:02;100591.38;;;7.67;100.00
17855;BME280;9053;53.358;6.382;2024-03-23T06:57:31;100587.13;;;7.70;100.00
17855;BME280;9053;53.358;6.382;2024-03-23T06:59:58;100582.28;;;7.79;100.00
17855;BME280;9053;53.358;6.382;2024-03-23T07:02:24;100594.94;;;7.90;100.00
17855;BME280;9053;53.358;6.382;2024-03-23T07:04:50;100592.69;;;7.99;100.00
17855;BME280;9053;53.358;6.382;2024-03-23T07:07:16;100589.28;;;8.01;100.00
17855;BME280;9053;53.358;6.382;2024-03-23T07:09:42;100593.38;;;7.95;100.00
17855;BME280;9053;53.358;6.382;2024-03-23T07:12:08;100590.69;;;7.93;100.00
17855;BME280;9053;53.358;6.382;2024-03-23T07:14:37;100577.44;;;7.89;100.00
17855;BME280;9053;53.358;6.382;2024-03-23T07:17:03;100583.44;;;7.86;100.00
17855;BME280;9053;53.358;6.382;2024-03-23T07:19:29;100585.16;;;7.86;100.00
17855;BME280;9053;53.358;6.382;2024-03-23T07:21:55;100579.09;;;7.87;100.00
17855;BME280;9053;53.358;6.382;2024-03-23T07:24:21;100582.69;;;7.89;100.00
17855;BME280;9053;53.358;6.382;2024-03-23T07:26:47;100579.41;;;7.94;100.00
17855;BME280;9053;53.358;6.382;2024-03-23T07:29:14;100574.59;;;8.05;100.00
17855;BME280;9053;53.358;6.382;2024-03-23T07:31:42;100574.38;;;8.21;100.00
17855;BME280;9053;53.358;6.382;2024-03-23T07:34:08;100575.78;;;8.36;100.00
17855;BME280;9053;53.358;6.382;2024-03-23T07:36:34;100569.38;;;8.50;100.00
17855;BME280;9053;53.358;6.382;2024-03-23T07:39:01;100568.16;;;8.64;100.00
17855;BME280;9053;53.358;6.382;2024-03-23T07:41:29;100563.34;;;8.77;100.00
17855;BME280;9053;53.358;6.382;2024-03-23T07:43:56;100562.97;;;8.90;100.00
17855;BME280;9053;53.358;6.382;2024-03-23T07:46:22;100561.69;;;9.03;100.00
17855;BME280;9053;53.358;6.382;2024-03-23T07:48:51;100564.84;;;9.18;100.00
17855;BME280;9053;53.358;6.382;2024-03-23T07:51:20;100565.44;;;9.35;100.00
17855;BME280;9053;53.358;6.382;2024-03-23T07:53:46;100561.66;;;9.52;100.00
17855;BME280;9053;53.358;6.382;2024-03-23T07:56:12;100561.84;;;9.59;100.00
17855;BME280;9053;53.358;6.382;2024-03-23T07:58:39;100558.38;;;9.60;99.87
17855;BME280;9053;53.358;6.382;2024-03-23T08:01:06;100552.19;;;9.58;99.11
17855;BME280;9053;53.358;6.382;2024-03-23T08:03:33;100550.56;;;9.61;98.80
17855;BME280;9053;53.358;6.382;2024-03-23T08:06:09;100545.50;;;9.67;98.38
17855;BME280;9053;53.358;6.382;2024-03-23T08:08:36;100548.13;;;9.67;97.65
17855;BME280;9053;53.358;6.382;2024-03-23T08:11:02;100549.13;;;9.71;97.33
17855;BME280;9053;53.358;6.382;2024-03-23T08:13:28;100551.13;;;9.80;97.04
17855;BME280;9053;53.358;6.382;2024-03-23T08:15:56;100544.34;;;9.86;96.65
17855;BME280;9053;53.358;6.382;2024-03-23T08:18:23;100547.28;;;9.95;96.22
17855;BME280;9053;53.358;6.382;2024-03-23T08:20:55;100544.03;;;10.04;95.75
17855;BME280;9053;53.358;6.382;2024-03-23T08:23:24;100545.16;;;10.12;95.15
17855;BME280;9053;53.358;6.382;2024-03-23T08:25:50;100539.09;;;10.13;94.33
17855;BME280;9053;53.358;6.382;2024-03-23T08:28:17;100543.41;;;10.11;93.58
17855;BME280;9053;53.358;6.382;2024-03-23T08:30:43;100552.81;;;10.05;92.91
17855;BME280;9053;53.358;6.382;2024-03-23T08:33:09;100543.88;;;9.98;92.23
17855;BME280;9053;53.358;6.382;2024-03-23T08:35:35;100540.94;;;9.89;91.82
17855;BME280;9053;53.358;6.382;2024-03-23T08:38:01;100535.50;;;9.83;91.63
17855;BME280;9053;53.358;6.382;2024-03-23T08:40:31;100533.78;;;9.85;91.77
17855;BME280;9053;53.358;6.382;2024-03-23T08:42:57;100533.13;;;9.90;91.65
17855;BME280;9053;53.358;6.382;2024-03-23T08:45:24;100527.31;;;10.01;91.73
17855;BME280;9053;53.358;6.382;2024-03-23T08:47:50;100518.00;;;10.12;91.74
17855;BME280;9053;53.358;6.382;2024-03-23T08:50:17;100519.44;;;10.29;92.01
17855;BME280;9053;53.358;6.382;2024-03-23T08:52:44;100506.81;;;10.48;92.11
17855;BME280;9053;53.358;6.382;2024-03-23T08:55:10;100513.44;;;10.64;92.04
17855;BME280;9053;53.358;6.382;2024-03-23T08:57:39;100516.63;;;10.83;91.91
17855;BME280;9053;53.358;6.382;2024-03-23T09:00:06;100520.53;;;10.99;91.73
17855;BME280;9053;53.358;6.382;2024-03-23T09:02:33;100532.41;;;11.17;91.32
17855;BME280;9053;53.358;6.382;2024-03-23T09:04:59;100532.38;;;11.15;90.29
17855;BME280;9053;53.358;6.382;2024-03-23T09:07:26;100536.06;;;10.90;88.97
17855;BME280;9053;53.358;6.382;2024-03-23T09:09:53;100536.91;;;10.57;88.11
17855;BME280;9053;53.358;6.382;2024-03-23T09:12:19;100530.84;;;10.30;87.61
17855;BME280;9053;53.358;6.382;2024-03-23T09:14:49;100527.25;;;9.99;87.34
17855;BME280;9053;53.358;6.382;2024-03-23T09:17:15;100523.94;;;9.78;86.94
17855;BME280;9053;53.358;6.382;2024-03-23T09:19:41;100518.97;;;9.60;86.91
17855;BME280;9053;53.358;6.382;2024-03-23T09:22:07;100522.16;;;9.49;87.05
17855;BME280;9053;53.358;6.382;2024-03-23T09:24:33;100512.56;;;9.50;87.46
17855;BME280;9053;53.358;6.382;2024-03-23T09:26:59;100517.91;;;9.53;87.74
17855;BME280;9053;53.358;6.382;2024-03-23T09:29:26;100516.47;;;9.63;88.35
17855;BME280;9053;53.358;6.382;2024-03-23T09:31:54;100525.53;;;9.72;88.72
17855;BME280;9053;53.358;6.382;2024-03-23T09:34:20;100520.66;;;9.85;88.86
17855;BME280;9053;53.358;6.382;2024-03-23T09:36:50;100524.53;;;9.96;89.03
17855;BME280;9053;53.358;6.382;2024-03-23T09:39:16;100524.13;;;10.11;89.09
17855;BME280;9053;53.358;6.382;2024-03-23T09:41:44;100509.59;;;10.24;89.15
17855;BME280;9053;53.358;6.382;2024-03-23T09:44:11;100502.94;;;10.35;89.03
17855;BME280;9053;53.358;6.382;2024-03-23T09:46:37;100498.84;;;10.45;88.84
17855;BME280;9053;53.358;6.382;2024-03-23T09:49:07;100495.69;;;10.56;88.55
17855;BME280;9053;53.358;6.382;2024-03-23T09:51:35;100505.56;;;10.65;88.39
17855;BME280;9053;53.358;6.382;2024-03-23T09:54:01;100488.22;;;10.72;87.99
17855;BME280;9053;53.358;6.382;2024-03-23T09:56:29;100506.94;;;10.82;87.62
17855;BME280;9053;53.358;6.382;2024-03-23T09:59:00;100500.94;;;10.88;87.09
17855;BME280;9053;53.358;6.382;2024-03-23T10:01:27;100504.22;;;10.79;86.28
17855;BME280;9053;53.358;6.382;2024-03-23T10:03:53;100494.25;;;10.68;85.71
17855;BME280;9053;53.358;6.382;2024-03-23T10:06:24;100488.03;;;10.66;85.45
17855;BME280;9053;53.358;6.382;2024-03-23T10:08:53;100492.69;;;10.74;85.43
17855;BME280;9053;53.358;6.382;2024-03-23T10:11:20;100487.63;;;10.82;85.41
17855;BME280;9053;53.358;6.382;2024-03-23T10:13:49;100493.09;;;10.90;85.18
17855;BME280;9053;53.358;6.382;2024-03-23T10:16:24;100505.09;;;10.80;84.59
17855;BME280;9053;53.358;6.382;2024-03-23T10:18:50;100510.81;;;10.64;83.92
17855;BME280;9053;53.358;6.382;2024-03-23T10:21:17;100517.31;;;10.46;83.44
17855;BME280;9053;53.358;6.382;2024-03-23T10:23:48;100509.53;;;10.21;82.90
17855;BME280;9053;53.358;6.382;2024-03-23T10:26:16;100506.16;;;9.97;82.80
17855;BME280;9053;53.358;6.382;2024-03-23T10:28:53;100507.50;;;9.83;82.74
17855;BME280;9053;53.358;6.382;2024-03-23T10:31:20;100504.75;;;9.80;82.81
17855;BME280;9053;53.358;6.382;2024-03-23T10:33:47;100500.44;;;9.82;82.95
17855;BME280;9053;53.358;6.382;2024-03-23T10:36:13;100504.63;;;9.75;82.96
17855;BME280;9053;53.358;6.382;2024-03-23T10:38:40;100494.78;;;9.68;83.01
17855;BME280;9053;53.358;6.382;2024-03-23T10:41:10;100488.75;;;9.72;83.21
17855;BME280;9053;53.358;6.382;2024-03-23T10:43:37;100490.66;;;9.77;83.54
17855;BME280;9053;53.358;6.382;2024-03-23T10:46:04;100494.31;;;9.82;83.52
17855;BME280;9053;53.358;6.382;2024-03-23T10:48:31;100493.41;;;9.81;83.41
17855;BME280;9053;53.358;6.382;2024-03-23T10:50:58;100496.06;;;9.81;83.46
17855;BME280;9053;53.358;6.382;2024-03-23T10:53:26;100493.41;;;9.81;83.62
17855;BME280;9053;53.358;6.382;2024-03-23T10:55:52;100496.09;;;9.83;83.83
17855;BME280;9053;53.358;6.382;2024-03-23T10:58:25;100492.56;;;9.82;84.17
17855;BME280;9053;53.358;6.382;2024-03-23T11:00:52;100493.81;;;9.93;84.44
17855;BME280;9053;53.358;6.382;2024-03-23T11:03:32;100488.97;;;10.07;84.81
17855;BME280;9053;53.358;6.382;2024-03-23T11:05:59;100498.94;;;10.19;84.91
17855;BME280;9053;53.358;6.382;2024-03-23T11:08:33;100492.03;;;10.23;84.74
17855;BME280;9053;53.358;6.382;2024-03-23T11:11:14;100484.88;;;10.17;84.36
17855;BME280;9053;53.358;6.382;2024-03-23T11:13:42;100495.22;;;10.11;84.21
17855;BME280;9053;53.358;6.382;2024-03-23T11:16:22;100481.28;;;10.13;84.38
17855;BME280;9053;53.358;6.382;2024-03-23T11:18:49;100483.28;;;10.22;84.45
17855;BME280;9053;53.358;6.382;2024-03-23T11:24:14;100477.03;;;10.18;84.53
17855;BME280;9053;53.358;6.382;2024-03-23T11:26:40;100475.03;;;10.10;84.55
17855;BME280;9053;53.358;6.382;2024-03-23T11:29:13;100473.97;;;10.03;84.33
17855;BME280;9053;53.358;6.382;2024-03-23T11:31:45;100470.34;;;10.00;84.46
17855;BME280;9053;53.358;6.382;2024-03-23T11:34:12;100474.94;;;10.07;84.68
17855;BME280;9053;53.358;6.382;2024-03-23T11:36:38;100467.59;;;10.25;84.78
17855;BME280;9053;53.358;6.382;2024-03-23T11:39:12;100479.47;;;10.41;84.93
17855;BME280;9053;53.358;6.382;2024-03-23T11:41:46;100471.22;;;10.59;84.43
17855;BME280;9053;53.358;6.382;2024-03-23T11:44:20;100477.97;;;10.49;83.66
17855;BME280;9053;53.358;6.382;2024-03-23T11:46:47;100479.34;;;10.36;82.84
17855;BME280;9053;53.358;6.382;2024-03-23T11:49:21;100479.84;;;10.25;82.79
17855;BME280;9053;53.358;6.382;2024-03-23T11:51:47;100472.72;;;10.21;82.46
17855;BME280;9053;53.358;6.382;2024-03-23T11:54:14;100465.66;;;10.18;82.16
17855;BME280;9053;53.358;6.382;2024-03-23T11:56:40;100469.81;;;10.11;81.78
17855;BME280;9053;53.358;6.382;2024-03-23T11:59:06;100475.66;;;10.01;81.76
17855;BME280;9053;53.358;6.382;2024-03-23T12:01:37;100469.38;;;9.96;81.79
17855;BME280;9053;53.358;6.382;2024-03-23T12:04:03;100464.06;;;9.94;81.90
17855;BME280;9053;53.358;6.382;2024-03-23T12:06:29;100464.06;;;9.94;81.95
17855;BME280;9053;53.358;6.382;2024-03-23T12:09:08;100477.25;;;9.96;82.47
17855;BME280;9053;53.358;6.382;2024-03-23T12:11:34;100462.47;;;10.00;82.83
17855;BME280;9053;53.358;6.382;2024-03-23T12:14:00;100458.00;;;9.97;82.95
17855;BME280;9053;53.358;6.382;2024-03-23T12:16:26;100463.25;;;9.97;83.60
17855;BME280;9053;53.358;6.382;2024-03-23T12:19:05;100458.38;;;10.09;84.14
17855;BME280;9053;53.358;6.382;2024-03-23T12:21:34;100447.72;;;10.33;84.23
17855;BME280;9053;53.358;6.382;2024-03-23T12:24:01;100440.75;;;10.35;83.67
17855;BME280;9053;53.358;6.382;2024-03-23T12:26:27;100446.81;;;10.33;83.05
17855;BME280;9053;53.358;6.382;2024-03-23T12:28:53;100446.47;;;10.22;82.73
17855;BME280;9053;53.358;6.382;2024-03-23T12:31:19;100444.44;;;10.12;83.00
17855;BME280;9053;53.358;6.382;2024-03-23T12:33:46;100455.44;;;9.99;83.44
17855;BME280;9053;53.358;6.382;2024-03-23T12:36:14;100449.72;;;9.83;83.71
17855;BME280;9053;53.358;6.382;2024-03-23T12:38:40;100452.06;;;9.74;84.23
17855;BME280;9053;53.358;6.382;2024-03-23T12:41:06;100443.22;;;9.72;84.75
17855;BME280;9053;53.358;6.382;2024-03-23T12:43:34;100451.09;;;9.72;85.33
17855;BME280;9053;53.358;6.382;2024-03-23T12:46:01;100441.63;;;9.77;85.72
17855;BME280;9053;53.358;6.382;2024-03-23T12:48:28;100457.53;;;9.82;85.73
17855;BME280;9053;53.358;6.382;2024-03-23T12:50:54;100464.38;;;9.77;85.58
17855;BME280;9053;53.358;6.382;2024-03-23T12:53:23;100460.78;;;9.73;85.59
17855;BME280;9053;53.358;6.382;2024-03-23T12:55:49;100453.34;;;9.60;85.37
17855;BME280;9053;53.358;6.382;2024-03-23T12:58:17;100459.91;;;9.45;85.10
17855;BME280;9053;53.358;6.382;2024-03-23T13:00:43;100453.22;;;9.28;85.31
17855;BME280;9053;53.358;6.382;2024-03-23T13:03:13;100448.69;;;9.22;85.63
17855;BME280;9053;53.358;6.382;2024-03-23T13:05:39;100438.22;;;9.24;86.08
17855;BME280;9053;53.358;6.382;2024-03-23T13:08:06;100451.31;;;9.24;86.35
17855;BME280;9053;53.358;6.382;2024-03-23T13:10:35;100444.22;;;9.20;86.59
17855;BME280;9053;53.358;6.382;2024-03-23T13:13:02;100441.69;;;9.23;86.88
17855;BME280;9053;53.358;6.382;2024-03-23T13:15:28;100447.38;;;9.37;87.13
17855;BME280;9053;53.358;6.382;2024-03-23T13:17:54;100453.09;;;9.52;87.26
17855;BME280;9053;53.358;6.382;2024-03-23T13:20:20;100445.72;;;9.67;87.49
17855;BME280;9053;53.358;6.382;2024-03-23T13:22:55;100437.97;;;9.72;87.37
17855;BME280;9053;53.358;6.382;2024-03-23T13:25:49;100442.53;;;9.78;87.19
17855;BME280;9053;53.358;6.382;2024-03-23T13:28:15;100446.09;;;9.80;87.00
17855;BME280;9053;53.358;6.382;2024-03-23T13:30:49;100449.44;;;9.74;86.75
17855;BME280;9053;53.358;6.382;2024-03-23T13:33:18;100453.59;;;9.67;86.43
17855;BME280;9053;53.358;6.382;2024-03-23T13:35:51;100455.31;;;9.65;86.22
17855;BME280;9053;53.358;6.382;2024-03-23T13:38:47;100451.81;;;9.66;86.43
17855;BME280;9053;53.358;6.382;2024-03-23T13:41:15;100459.03;;;9.73;86.72
17855;BME280;9053;53.358;6.382;2024-03-23T13:43:43;100441.63;;;9.77;86.97
17855;BME280;9053;53.358;6.382;2024-03-23T13:46:11;100455.78;;;9.81;87.36
17855;BME280;9053;53.358;6.382;2024-03-23T13:48:37;100454.91;;;9.82;87.58
17855;BME280;9053;53.358;6.382;2024-03-23T13:51:04;100451.50;;;9.84;87.70
17855;BME280;9053;53.358;6.382;2024-03-23T13:53:31;100461.16;;;9.85;87.71
17855;BME280;9053;53.358;6.382;2024-03-23T13:55:58;100444.56;;;9.86;87.87
17855;BME280;9053;53.358;6.382;2024-03-23T13:58:26;100451.34;;;9.80;87.87